University of Texas, Texas
Current Conditions -  °F | °C
As of 11:51 PM on Friday 24 Oct 2014 (Local Time) from KATT Reporting Station
Clear Clear  
Wind Chill: 70°   Ceiling: Unl
Heat Index: 70°   Visibility: 10mi
Dew Point: 59°   Wind: 0mph
Humidity: 68%   Direction: NA
Pressure: 30.15"   Gusts: NA
Location:  30.2843°N, 97.7442°W
Report Text: KATT 250451Z AUTO 00000KT 10SM CLR 21/15 A3015 RMK AO2 SLP201 T02110150
Loading
Personal Weather Stations






























Interactive Weather Map
Tropical Storm Tracking
New forecast layout! Learn more

10-Day Weather Forecast

Advertisements
Track Severe Weather on mobile